createdAt,value
2019-02-12T00:01:08.037Z,4.81
2019-02-12T00:03:37.017Z,4.79
2019-02-12T00:06:06.003Z,4.80
2019-02-12T00:08:34.993Z,4.81
2019-02-12T00:11:04.013Z,4.82
2019-02-12T00:13:32.962Z,4.82
2019-02-12T00:16:01.932Z,4.79
2019-02-12T00:18:30.909Z,4.77
2019-02-12T00:20:59.898Z,4.78
2019-02-12T00:23:28.880Z,4.78
2019-02-12T00:25:57.869Z,4.75
2019-02-12T00:28:26.848Z,4.72
2019-02-12T00:30:55.855Z,4.70
2019-02-12T00:33:24.827Z,4.68
2019-02-12T00:35:53.805Z,4.67
2019-02-12T00:38:22.785Z,4.73
2019-02-12T00:40:51.757Z,4.71
2019-02-12T00:43:20.748Z,4.70
2019-02-12T00:45:49.744Z,4.73
2019-02-12T00:48:18.721Z,4.70
2019-02-12T00:50:47.715Z,4.69
2019-02-12T00:53:16.707Z,4.67
2019-02-12T00:55:45.705Z,4.66
2019-02-12T00:58:14.705Z,4.65
2019-02-12T01:00:43.679Z,4.66
2019-02-12T01:03:12.677Z,4.67
2019-02-12T01:05:41.661Z,4.66
2019-02-12T01:08:10.643Z,4.66
2019-02-12T01:10:39.612Z,4.66
2019-02-12T01:13:08.575Z,4.66
2019-02-12T01:15:37.568Z,4.67
2019-02-12T01:18:06.580Z,4.68
2019-02-12T01:20:35.544Z,4.67
2019-02-12T01:23:04.538Z,4.71
2019-02-12T01:25:33.536Z,4.67
2019-02-12T01:28:02.514Z,4.65
2019-02-12T01:30:31.494Z,4.65
2019-02-12T01:33:00.532Z,4.45
2019-02-12T01:35:29.490Z,4.66
2019-02-12T01:37:58.490Z,4.62
2019-02-12T01:40:27.473Z,4.63
2019-02-12T01:42:56.451Z,4.65
2019-02-12T01:45:25.442Z,4.63
2019-02-12T01:47:54.464Z,4.62
2019-02-12T01:50:23.471Z,4.62
2019-02-12T01:52:52.439Z,4.63
2019-02-12T01:55:21.412Z,4.61
2019-02-12T01:57:50.395Z,4.56
2019-02-12T02:00:40.039Z,4.56
2019-02-12T02:03:09.065Z,4.57
2019-02-12T02:05:38.028Z,4.57
2019-02-12T02:08:06.994Z,4.55
2019-02-12T02:10:35.978Z,4.59
2019-02-12T02:13:04.946Z,4.57
2019-02-12T02:15:34.007Z,4.53
2019-02-12T02:18:02.999Z,4.57
2019-02-12T02:20:31.970Z,4.53
2019-02-12T02:23:00.942Z,4.51
2019-02-12T02:25:29.924Z,4.48
2019-02-12T02:27:58.894Z,4.43
2019-02-12T02:30:27.882Z,4.40
2019-02-12T02:32:56.868Z,4.39
2019-02-12T02:35:25.838Z,4.40
2019-02-12T02:37:54.843Z,4.39
2019-02-12T02:40:23.816Z,4.35
2019-02-12T02:42:52.788Z,4.36
2019-02-12T02:45:21.782Z,4.38
2019-02-12T02:47:50.763Z,4.38
2019-02-12T02:50:22.763Z,4.41
2019-02-12T02:52:51.748Z,4.43
2019-02-12T02:55:20.729Z,4.48
2019-02-12T02:57:49.710Z,4.46
2019-02-12T03:00:18.663Z,4.46
2019-02-12T03:02:48.255Z,4.53
2019-02-12T03:05:17.220Z,4.52
2019-02-12T03:07:46.193Z,4.53
2019-02-12T03:10:15.173Z,4.49
2019-02-12T03:12:44.149Z,4.46
2019-02-12T03:15:13.140Z,4.44
2019-02-12T03:17:42.102Z,4.40
2019-02-12T03:20:11.795Z,4.37
2019-02-12T03:22:40.778Z,4.40
2019-02-12T03:25:09.972Z,4.43
2019-02-12T03:27:39.067Z,4.47
2019-02-12T03:30:09.072Z,4.46
2019-02-12T03:32:38.091Z,4.40
2019-02-12T03:35:07.678Z,4.34
2019-02-12T03:37:36.642Z,4.33
2019-02-12T03:40:06.063Z,4.28
2019-02-12T03:42:35.036Z,4.27
2019-02-12T03:45:04.040Z,4.27
2019-02-12T03:47:33.030Z,4.26
2019-02-12T03:50:02.029Z,4.25
2019-02-12T03:52:30.983Z,4.27
2019-02-12T03:54:59.965Z,4.27
2019-02-12T03:57:28.928Z,4.31
2019-02-12T03:59:57.931Z,4.30
2019-02-12T04:02:26.977Z,4.24
2019-02-12T04:04:55.977Z,4.25
2019-02-12T04:07:24.951Z,4.29
2019-02-12T04:09:53.937Z,4.28
2019-02-12T04:12:22.958Z,4.28
2019-02-12T04:14:51.945Z,4.28
2019-02-12T04:17:20.918Z,4.27
2019-02-12T04:19:49.906Z,4.27
2019-02-12T04:22:22.510Z,4.35
2019-02-12T04:24:49.573Z,4.41
2019-02-12T04:27:18.536Z,4.39
2019-02-12T04:29:47.492Z,4.38
2019-02-12T04:32:16.455Z,4.41
2019-02-12T04:34:45.440Z,4.40
2019-02-12T04:37:14.400Z,4.41
2019-02-12T04:39:43.405Z,4.37
2019-02-12T04:42:12.377Z,4.36
2019-02-12T04:44:41.350Z,4.32
2019-02-12T04:47:10.353Z,4.25
2019-02-12T04:49:39.322Z,4.23
2019-02-12T04:52:08.315Z,4.21
2019-02-12T04:54:37.283Z,4.21
2019-02-12T04:57:06.322Z,4.19
2019-02-12T04:59:35.291Z,4.19
2019-02-12T05:02:04.253Z,4.19
2019-02-12T05:04:33.236Z,4.20
2019-02-12T05:07:02.213Z,4.15
2019-02-12T05:09:32.036Z,4.16
2019-02-12T05:12:05.943Z,4.20
2019-02-12T05:14:34.915Z,4.20
2019-02-12T05:17:03.891Z,4.24
2019-02-12T05:19:32.893Z,4.19
2019-02-12T05:22:01.940Z,4.16
2019-02-12T05:24:30.942Z,4.18
2019-02-12T05:26:59.909Z,4.17
2019-02-12T05:29:28.894Z,4.14
2019-02-12T05:31:57.893Z,4.16
2019-02-12T05:34:26.860Z,4.16
2019-02-12T05:36:55.846Z,4.22
2019-02-12T05:39:24.801Z,4.20
2019-02-12T05:41:53.802Z,4.18
2019-02-12T05:44:22.808Z,4.19
2019-02-12T05:46:51.786Z,4.16
2019-02-12T05:49:20.773Z,4.14
2019-02-12T05:51:49.743Z,4.11
2019-02-12T05:54:18.721Z,4.08
2019-02-12T05:56:47.687Z,4.07
2019-02-12T05:59:16.656Z,4.04
2019-02-12T06:01:45.659Z,4.02
2019-02-12T06:04:14.666Z,3.99
2019-02-12T06:06:45.703Z,3.96
2019-02-12T06:09:14.684Z,3.95
2019-02-12T06:11:43.666Z,3.88
2019-02-12T06:14:12.623Z,3.87
2019-02-12T06:16:41.619Z,3.87
2019-02-12T06:19:11.656Z,3.86
2019-02-12T06:21:40.694Z,3.84
2019-02-12T06:24:09.685Z,3.84
2019-02-12T06:26:38.695Z,3.87
2019-02-12T06:29:07.665Z,3.88
2019-02-12T06:31:36.658Z,3.89
2019-02-12T06:34:05.643Z,3.87
2019-02-12T06:36:34.633Z,3.86
2019-02-12T06:39:05.107Z,3.84
2019-02-12T06:41:34.105Z,3.81
2019-02-12T06:44:03.069Z,3.83
2019-02-12T06:46:32.043Z,3.81
2019-02-12T06:49:02.544Z,3.81
2019-02-12T06:51:31.586Z,3.81
2019-02-12T06:54:00.547Z,3.79
2019-02-12T06:56:29.584Z,3.77
2019-02-12T06:58:58.580Z,3.77
2019-02-12T07:01:27.566Z,3.77
2019-02-12T07:04:05.462Z,3.76
2019-02-12T07:07:24.930Z,3.79
2019-02-12T07:09:57.106Z,3.79
2019-02-12T07:13:06.652Z,3.81
2019-02-12T07:16:08.922Z,3.81
2019-02-12T07:19:14.898Z,3.84
2019-02-12T07:22:08.567Z,3.85
2019-02-12T07:24:59.359Z,3.85
2019-02-12T07:27:57.927Z,3.86
2019-02-12T07:31:04.813Z,3.88
2019-02-12T07:34:12.824Z,3.91
2019-02-12T07:36:59.991Z,3.92
2019-02-12T07:40:15.115Z,3.90
2019-02-12T07:42:53.457Z,3.92
2019-02-12T07:45:53.336Z,3.91
2019-02-12T07:48:46.521Z,3.94
2019-02-12T07:51:44.188Z,3.95
2019-02-12T07:54:37.806Z,3.96
2019-02-12T07:57:48.195Z,3.96
2019-02-12T08:00:55.788Z,3.99
2019-02-12T08:04:11.992Z,4.00
2019-02-12T08:07:05.532Z,4.03
2019-02-12T08:10:21.396Z,4.05
2019-02-12T08:13:16.869Z,4.06
2019-02-12T08:16:08.302Z,4.06
2019-02-12T08:19:15.180Z,4.05
2019-02-12T08:21:55.306Z,4.09
2019-02-12T08:24:45.871Z,4.17
2019-02-12T08:27:44.641Z,4.18
2019-02-12T08:31:03.955Z,4.22
2019-02-12T08:34:08.131Z,4.27
2019-02-12T08:37:08.250Z,4.30
2019-02-12T08:40:08.959Z,4.26
2019-02-12T08:43:08.483Z,4.27
2019-02-12T08:46:08.605Z,4.31
2019-02-12T08:49:15.999Z,4.31
2019-02-12T08:52:20.642Z,4.36
2019-02-12T08:55:13.925Z,4.38
2019-02-12T08:57:59.601Z,4.43
2019-02-12T09:01:08.787Z,4.44
2019-02-12T09:04:19.328Z,4.46
2019-02-12T09:06:57.912Z,4.47
2019-02-12T09:10:22.945Z,4.48
2019-02-12T09:13:14.652Z,4.50
2019-02-12T09:16:12.679Z,4.48
2019-02-12T09:19:25.056Z,4.45
2019-02-12T09:22:44.152Z,4.45
2019-02-12T09:25:51.812Z,4.46
2019-02-12T09:28:27.547Z,4.51
2019-02-12T09:31:29.923Z,4.55
2019-02-12T09:34:21.871Z,4.68
2019-02-12T09:37:17.060Z,4.71
2019-02-12T09:40:19.117Z,4.77
2019-02-12T09:43:31.311Z,4.80
2019-02-12T09:46:22.713Z,4.90
2019-02-12T09:49:50.683Z,5.05
2019-02-12T09:52:51.635Z,5.25
2019-02-12T09:55:56.015Z,5.65
2019-02-12T09:59:03.350Z,5.78
2019-02-12T10:01:43.720Z,6.08
2019-02-12T10:04:40.588Z,6.42
2019-02-12T10:07:38.364Z,6.61
2019-02-12T10:10:36.475Z,6.66
2019-02-12T10:13:57.537Z,6.60
2019-02-12T10:16:55.399Z,6.53
2019-02-12T10:19:51.320Z,6.39
2019-02-12T10:23:01.576Z,6.19
2019-02-12T10:25:44.109Z,6.15
2019-02-12T10:28:49.802Z,6.03
2019-02-12T10:31:42.331Z,5.93
2019-02-12T10:34:11.763Z,5.91
2019-02-12T10:36:40.755Z,5.93
2019-02-12T10:39:14.101Z,5.84
2019-02-12T10:41:43.028Z,5.85
2019-02-12T10:44:12.027Z,5.83
2019-02-12T10:46:41.019Z,5.85
2019-02-12T10:49:10.009Z,6.04
2019-02-12T10:51:39.031Z,6.27
2019-02-12T10:54:08.039Z,6.38
2019-02-12T10:56:37.056Z,6.51
2019-02-12T10:59:06.093Z,6.82
2019-02-12T11:01:35.077Z,6.90
2019-02-12T11:04:04.096Z,7.02
2019-02-12T11:06:33.066Z,6.98
2019-02-12T11:09:02.087Z,7.02
2019-02-12T11:11:31.112Z,7.06
2019-02-12T11:14:00.099Z,7.07
2019-02-12T11:16:29.149Z,7.13
2019-02-12T11:18:58.140Z,7.13
2019-02-12T11:21:27.131Z,7.21
2019-02-12T11:23:56.115Z,7.19
2019-02-12T11:26:25.112Z,7.10
2019-02-12T11:28:54.115Z,7.12
2019-02-12T11:31:23.092Z,7.06
2019-02-12T11:33:52.079Z,7.09
2019-02-12T11:36:21.109Z,7.17
2019-02-12T11:38:50.147Z,7.15
2019-02-12T11:41:19.176Z,7.22
2019-02-12T11:43:48.155Z,7.35
2019-02-12T11:46:17.173Z,7.36
2019-02-12T11:48:46.184Z,7.24
2019-02-12T11:51:15.191Z,7.07
2019-02-12T11:53:44.238Z,7.02
2019-02-12T11:56:13.219Z,6.96
2019-02-12T11:58:42.200Z,6.88
2019-02-12T12:01:16.134Z,6.87
2019-02-12T12:03:45.115Z,6.77
2019-02-12T12:06:14.142Z,6.75
2019-02-12T12:08:43.123Z,6.70
2019-02-12T12:11:12.155Z,6.70
2019-02-12T12:13:41.209Z,6.78
2019-02-12T12:16:11.211Z,6.83
2019-02-12T12:18:40.352Z,6.94
2019-02-12T12:21:09.354Z,6.99
2019-02-12T12:23:38.372Z,6.98
2019-02-12T12:26:07.390Z,6.97
2019-02-12T12:28:36.402Z,7.02
2019-02-12T12:31:05.464Z,6.99
2019-02-12T12:33:34.470Z,7.02
2019-02-12T12:36:03.542Z,7.05
2019-02-12T12:38:32.534Z,7.12
2019-02-12T12:41:01.500Z,7.16
2019-02-12T12:43:30.513Z,7.27
2019-02-12T12:45:59.583Z,7.38
2019-02-12T12:48:28.591Z,7.36
2019-02-12T12:50:57.578Z,7.42
2019-02-12T12:53:26.574Z,7.60
2019-02-12T12:55:55.625Z,7.80
2019-02-12T12:58:24.647Z,8.05
2019-02-12T13:00:53.658Z,8.15
2019-02-12T13:03:22.665Z,8.31
2019-02-12T13:05:51.642Z,8.38
2019-02-12T13:08:20.719Z,8.39
2019-02-12T13:10:49.721Z,8.40
2019-02-12T13:13:18.744Z,8.33
2019-02-12T13:15:47.750Z,8.21
2019-02-12T13:18:17.072Z,8.12
2019-02-12T13:20:46.057Z,7.99
2019-02-12T13:23:15.095Z,7.97
2019-02-12T13:25:44.088Z,7.99
2019-02-12T13:28:13.072Z,7.97
2019-02-12T13:30:42.112Z,7.94
2019-02-12T13:33:11.155Z,7.92
2019-02-12T13:35:40.136Z,7.91
2019-02-12T13:38:09.210Z,7.89
2019-02-12T13:40:38.272Z,7.82
2019-02-12T13:43:07.280Z,7.77
2019-02-12T13:45:36.304Z,7.74
2019-02-12T13:48:05.318Z,7.71
2019-02-12T13:50:34.339Z,7.65
2019-02-12T13:53:03.299Z,7.65
2019-02-12T13:55:32.310Z,7.66
2019-02-12T13:58:01.311Z,7.64
2019-02-12T14:00:30.309Z,7.65
2019-02-12T14:02:59.337Z,7.58
2019-02-12T14:05:28.416Z,7.47
2019-02-12T14:07:57.415Z,7.46
2019-02-12T14:10:26.443Z,7.47
2019-02-12T14:12:55.477Z,7.47
2019-02-12T14:15:24.525Z,7.40
2019-02-12T14:17:53.506Z,7.34
2019-02-12T14:20:22.541Z,7.35
2019-02-12T14:22:51.518Z,7.34
2019-02-12T14:25:25.614Z,7.32
2019-02-12T14:27:51.274Z,7.31
2019-02-12T14:30:20.282Z,7.28
2019-02-12T14:32:49.344Z,7.23
2019-02-12T14:35:18.320Z,7.17
2019-02-12T14:37:47.297Z,7.14
2019-02-12T14:40:16.324Z,7.12
2019-02-12T14:42:45.352Z,7.12
2019-02-12T14:45:14.766Z,7.10
2019-02-12T14:47:43.778Z,7.05
2019-02-12T14:50:12.882Z,7.06
2019-02-12T14:52:42.048Z,7.04
2019-02-12T14:55:11.105Z,7.08
2019-02-12T14:57:40.132Z,7.11
2019-02-12T15:00:11.522Z,7.10
2019-02-12T15:02:40.541Z,7.11
2019-02-12T15:05:09.565Z,7.12
2019-02-12T15:07:38.597Z,7.14
2019-02-12T15:10:08.910Z,7.16
2019-02-12T15:12:38.035Z,7.20
2019-02-12T15:15:07.274Z,7.19
2019-02-12T15:17:36.257Z,7.17
2019-02-12T15:20:07.694Z,7.05
2019-02-12T15:22:38.191Z,6.73
2019-02-12T15:25:07.455Z,7.02
2019-02-12T15:27:36.590Z,7.02
2019-02-12T15:30:07.379Z,6.99
2019-02-12T15:32:36.488Z,6.98
2019-02-12T15:35:06.141Z,6.99
2019-02-12T15:37:35.161Z,6.98
2019-02-12T15:40:04.559Z,7.01
2019-02-12T15:42:34.192Z,6.99
2019-02-12T15:45:03.249Z,6.97
2019-02-12T15:47:32.266Z,6.96
2019-02-12T15:50:01.310Z,6.96
2019-02-12T15:52:30.452Z,6.95
2019-02-12T15:54:59.570Z,6.88
2019-02-12T15:57:28.660Z,6.84
2019-02-12T15:59:57.742Z,6.83
2019-02-12T16:02:26.789Z,6.80
2019-02-12T16:04:55.786Z,6.81
2019-02-12T16:07:24.920Z,6.76
2019-02-12T16:09:55.031Z,6.76
2019-02-12T16:12:26.429Z,6.76
2019-02-12T16:14:57.355Z,6.74
2019-02-12T16:17:27.172Z,6.73
2019-02-12T16:19:56.213Z,6.73
2019-02-12T16:22:25.257Z,6.72
2019-02-12T16:24:54.279Z,6.71
2019-02-12T16:27:23.351Z,6.69
2019-02-12T16:29:52.383Z,6.70
2019-02-12T16:32:21.417Z,6.71
2019-02-12T16:34:50.613Z,6.68
2019-02-12T16:37:19.658Z,6.67
2019-02-12T16:39:48.672Z,6.65
2019-02-12T16:42:17.703Z,6.64
2019-02-12T16:44:46.699Z,6.61
2019-02-12T16:47:15.747Z,6.58
2019-02-12T16:49:44.797Z,6.56
2019-02-12T16:52:20.631Z,6.55
2019-02-12T16:54:44.638Z,6.53
2019-02-12T16:57:13.743Z,6.50
2019-02-12T16:59:42.840Z,6.50
2019-02-12T17:02:11.898Z,6.52
2019-02-12T17:04:40.903Z,6.51
2019-02-12T17:07:09.942Z,6.52
2019-02-12T17:09:38.972Z,6.49
2019-02-12T17:12:08.053Z,6.49
2019-02-12T17:14:37.123Z,6.46
2019-02-12T17:17:06.222Z,6.47
2019-02-12T17:19:35.242Z,6.48
2019-02-12T17:22:04.311Z,6.43
2019-02-12T17:24:33.376Z,6.42
2019-02-12T17:27:02.299Z,6.40
2019-02-12T17:29:31.469Z,6.38
2019-02-12T17:32:00.540Z,6.38
2019-02-12T17:34:29.667Z,6.36
2019-02-12T17:36:58.776Z,5.47
2019-02-12T17:39:28.071Z,6.28
2019-02-12T17:41:57.449Z,6.23
2019-02-12T17:44:26.626Z,6.21
2019-02-12T17:46:55.721Z,6.17
2019-02-12T17:49:25.153Z,5.51
2019-02-12T17:51:54.416Z,6.11
2019-02-12T17:54:23.490Z,6.08
2019-02-12T17:56:52.515Z,6.07
2019-02-12T17:59:21.647Z,6.09
2019-02-12T18:01:50.706Z,6.08
2019-02-12T18:04:19.766Z,6.06
2019-02-12T18:06:48.861Z,6.05
2019-02-12T18:09:18.000Z,6.03
2019-02-12T18:11:47.142Z,6.02
2019-02-12T18:14:16.265Z,6.00
2019-02-12T18:16:45.922Z,5.96
2019-02-12T18:19:15.025Z,5.94
2019-02-12T18:21:44.148Z,5.90
2019-02-12T18:24:13.845Z,5.91
2019-02-12T18:26:43.054Z,5.87
2019-02-12T18:29:12.433Z,5.85
2019-02-12T18:31:41.639Z,5.84
2019-02-12T18:34:10.832Z,5.83
2019-02-12T18:36:39.964Z,5.82
2019-02-12T18:39:09.152Z,5.81
2019-02-12T18:41:38.281Z,5.80
2019-02-12T18:44:07.585Z,5.76
2019-02-12T18:46:36.622Z,5.75
2019-02-12T18:49:05.933Z,5.73
2019-02-12T18:51:35.743Z,5.72
2019-02-12T18:54:04.911Z,5.72
2019-02-12T18:56:41.474Z,5.70
2019-02-12T18:59:05.172Z,5.68
2019-02-12T19:01:34.371Z,5.64
2019-02-12T19:04:03.481Z,5.61
2019-02-12T19:06:32.660Z,5.56
2019-02-12T19:09:01.735Z,5.52
2019-02-12T19:11:30.873Z,5.51
2019-02-12T19:13:59.910Z,5.47
2019-02-12T19:16:29.236Z,5.44
2019-02-12T19:18:58.470Z,5.40
2019-02-12T19:21:27.509Z,5.40
2019-02-12T19:23:56.581Z,5.35
2019-02-12T19:26:25.643Z,5.31
2019-02-12T19:28:54.886Z,5.31
2019-02-12T19:31:23.958Z,5.27
2019-02-12T19:33:53.399Z,5.25
2019-02-12T19:36:22.555Z,5.23
2019-02-12T19:38:51.677Z,5.22
2019-02-12T19:41:21.560Z,5.19
2019-02-12T19:43:50.965Z,5.15
2019-02-12T19:46:20.417Z,5.12
2019-02-12T19:48:49.751Z,5.10
2019-02-12T19:51:19.511Z,5.08
2019-02-12T19:53:48.829Z,5.07
2019-02-12T19:56:18.299Z,5.06
2019-02-12T19:58:47.571Z,5.03
2019-02-12T20:01:16.959Z,5.03
2019-02-12T20:03:46.416Z,5.02
2019-02-12T20:06:15.575Z,4.98
2019-02-12T20:08:44.704Z,4.99
2019-02-12T20:11:13.746Z,4.99
2019-02-12T20:13:42.925Z,4.97
2019-02-12T20:16:12.106Z,4.94
2019-02-12T20:18:41.239Z,4.91
2019-02-12T20:21:10.297Z,4.91
2019-02-12T20:23:39.714Z,4.91
2019-02-12T20:26:08.974Z,4.91
2019-02-12T20:28:38.148Z,4.90
2019-02-12T20:31:07.708Z,4.88
2019-02-12T20:33:37.138Z,4.83
2019-02-12T20:36:07.049Z,4.80
2019-02-12T20:38:36.148Z,4.79
2019-02-12T20:41:05.657Z,4.78
2019-02-12T20:43:35.400Z,4.76
2019-02-12T20:46:04.619Z,4.74
2019-02-12T20:48:33.956Z,4.74
2019-02-12T20:51:03.214Z,4.73
2019-02-12T20:53:32.421Z,4.73
2019-02-12T20:56:01.457Z,4.70
2019-02-12T20:58:31.005Z,4.70
2019-02-12T21:01:00.161Z,4.70
2019-02-12T21:03:29.192Z,4.70
2019-02-12T21:05:58.478Z,4.68
2019-02-12T21:08:27.475Z,4.66
2019-02-12T21:10:56.961Z,4.63
2019-02-12T21:13:26.435Z,4.61
2019-02-12T21:15:55.459Z,4.60
2019-02-12T21:18:24.505Z,4.58
2019-02-12T21:20:53.588Z,4.57
2019-02-12T21:23:22.805Z,4.56
2019-02-12T21:25:51.884Z,4.56
2019-02-12T21:28:20.920Z,4.54
2019-02-12T21:30:50.294Z,4.50
2019-02-12T21:33:19.336Z,4.48
2019-02-12T21:35:48.538Z,4.06
2019-02-12T21:38:19.861Z,4.51
2019-02-12T21:40:48.878Z,4.49
2019-02-12T21:43:17.896Z,4.48
2019-02-12T21:45:47.042Z,4.49
2019-02-12T21:48:16.066Z,4.47
2019-02-12T21:50:45.129Z,4.48
2019-02-12T21:53:14.222Z,4.47
2019-02-12T21:55:43.269Z,4.49
2019-02-12T21:58:12.302Z,4.48
2019-02-12T22:00:41.362Z,4.45
2019-02-12T22:03:10.362Z,4.49
2019-02-12T22:05:39.421Z,4.47
2019-02-12T22:08:08.416Z,4.49
2019-02-12T22:10:37.443Z,4.44
2019-02-12T22:13:06.447Z,4.54
2019-02-12T22:15:35.459Z,4.56
2019-02-12T22:18:04.483Z,4.54
2019-02-12T22:20:33.539Z,4.56
2019-02-12T22:23:02.608Z,4.59
2019-02-12T22:25:31.601Z,4.61
2019-02-12T22:28:00.593Z,4.60
2019-02-12T22:30:29.592Z,4.63
2019-02-12T22:32:58.588Z,4.68
2019-02-12T22:35:27.654Z,4.68
2019-02-12T22:37:56.640Z,4.72
2019-02-12T22:40:25.671Z,4.72
2019-02-12T22:42:54.696Z,4.78
2019-02-12T22:45:23.856Z,4.78
2019-02-12T22:47:52.908Z,4.79
2019-02-12T22:50:21.899Z,4.77
2019-02-12T22:52:50.959Z,4.76
2019-02-12T22:55:19.956Z,4.75
2019-02-12T22:57:49.739Z,4.74
2019-02-12T23:00:48.921Z,4.71
2019-02-12T23:03:17.947Z,4.70
2019-02-12T23:05:46.944Z,4.66
2019-02-12T23:08:15.919Z,4.66
2019-02-12T23:10:44.909Z,4.65
2019-02-12T23:13:13.911Z,4.63
2019-02-12T23:15:42.935Z,4.66
2019-02-12T23:18:11.950Z,4.63
2019-02-12T23:20:41.009Z,4.61
2019-02-12T23:23:10.027Z,4.62
2019-02-12T23:25:39.083Z,4.62
2019-02-12T23:28:08.092Z,4.62
2019-02-12T23:30:37.100Z,4.58
2019-02-12T23:33:06.092Z,4.61
2019-02-12T23:35:35.067Z,4.61
2019-02-12T23:38:04.474Z,4.64
2019-02-12T23:40:33.476Z,4.69
2019-02-12T23:43:02.490Z,4.87
2019-02-12T23:45:31.512Z,4.86
2019-02-12T23:48:00.526Z,4.86
2019-02-12T23:50:29.536Z,4.86
2019-02-12T23:52:58.512Z,4.86
2019-02-12T23:55:27.503Z,4.85
2019-02-12T23:57:56.493Z,4.91
